Time;durP1;ratioP1;P1;durP2;ratioP2;P2;SDS_P1;SDS_P2;PMS_P1;PMS_P2;Temp;Humidity;BMP_temperature;BMP_pressure;BME280_temperature;BME280_humidity;BME280_pressure;Samples;Min_cycle;Max_cycle;Signal;HPM_P1;HPM_P2
2021/12/04 00:02:03;;;;;;;23.42;14.75;;;;;;;;;;5067566;28;20040;-57
2021/12/04 00:04:37;;;;;;;22.90;14.75;;;;;;;;;;5068852;28;20059;-56
2021/12/04 00:07:07;;;;;;;19.45;14.02;;;;;;;;;;5064223;28;20059;-57
2021/12/04 00:09:34;;;;;;;21.38;13.75;;;;;;;;;;5064740;28;20039;-57
2021/12/04 00:12:02;;;;;;;22.73;13.80;;;;;;;;;;5069090;28;20033;-57
2021/12/04 00:14:28;;;;;;;21.20;13.98;;;;;;;;;;5070232;28;20036;-57
2021/12/04 00:16:55;;;;;;;22.00;14.07;;;;;;;;;;5062265;28;20159;-56
2021/12/04 00:19:21;;;;;;;22.08;13.98;;;;;;;;;;5064756;28;20052;-57
2021/12/04 00:21:47;;;;;;;26.00;15.52;;;;;;;;;;5068417;28;20103;-57
2021/12/04 00:24:13;;;;;;;22.85;14.73;;;;;;;;;;5068291;28;20127;-56
2021/12/04 00:26:40;;;;;;;22.75;14.35;;;;;;;;;;5068201;28;20062;-57
2021/12/04 00:29:06;;;;;;;23.83;14.63;;;;;;;;;;5068180;28;20056;-56
2021/12/04 00:31:33;;;;;;;25.65;14.88;;;;;;;;;;5064170;28;20615;-57
2021/12/04 00:34:00;;;;;;;21.83;14.07;;;;;;;;;;5050618;28;20044;-57
2021/12/04 00:49:52;;;;;;;21.55;12.63;;;;;;;;;;5071758;28;20386;-56
2021/12/04 00:52:18;;;;;;;25.60;13.88;;;;;;;;;;5072715;28;20557;-56
2021/12/04 00:54:45;;;;;;;22.05;13.65;;;;;;;;;;5073150;28;20036;-57
2021/12/04 00:57:11;;;;;;;25.23;13.77;;;;;;;;;;5072411;28;20037;-57
2021/12/04 00:59:37;;;;;;;23.38;13.05;;;;;;;;;;5073999;28;20052;-57
2021/12/04 01:02:03;;;;;;;21.13;13.45;;;;;;;;;;5070959;28;20097;-57
2021/12/04 01:04:29;;;;;;;19.30;13.00;;;;;;;;;;5071574;28;20044;-57
2021/12/04 01:06:55;;;;;;;19.17;12.43;;;;;;;;;;5071955;28;20112;-57
2021/12/04 01:09:23;;;;;;;19.55;12.40;;;;;;;;;;5066230;28;20044;-56
2021/12/04 01:11:50;;;;;;;19.08;11.65;;;;;;;;;;5071981;28;20045;-56
2021/12/04 01:14:17;;;;;;;14.73;10.70;;;;;;;;;;5071073;28;20116;-57
2021/12/04 01:16:44;;;;;;;15.95;11.25;;;;;;;;;;5073228;28;20530;-57
2021/12/04 01:19:10;;;;;;;15.80;10.85;;;;;;;;;;5071887;28;20074;-56
2021/12/04 01:21:36;;;;;;;15.02;11.15;;;;;;;;;;5070837;28;20036;-57
2021/12/04 01:24:02;;;;;;;16.05;11.68;;;;;;;;;;5070073;28;20146;-56
2021/12/04 01:26:28;;;;;;;14.88;10.05;;;;;;;;;;5072402;28;20087;-57
2021/12/04 01:28:54;;;;;;;15.07;9.95;;;;;;;;;;5073115;28;20043;-57
2021/12/04 01:31:21;;;;;;;11.68;9.02;;;;;;;;;;5069600;28;20045;-56
2021/12/04 01:33:47;;;;;;;11.05;8.93;;;;;;;;;;5069977;28;20518;-58
2021/12/04 01:36:13;;;;;;;10.57;9.05;;;;;;;;;;5068325;28;20032;-56
2021/12/04 01:38:39;;;;;;;10.65;8.75;;;;;;;;;;5069550;28;20036;-57
2021/12/04 01:41:05;;;;;;;10.27;8.55;;;;;;;;;;5066552;28;20037;-57
2021/12/04 01:43:32;;;;;;;11.98;8.38;;;;;;;;;;5069715;28;20609;-57
2021/12/04 01:45:58;;;;;;;10.38;8.20;;;;;;;;;;5073152;28;20044;-56
2021/12/04 01:48:24;;;;;;;13.13;9.20;;;;;;;;;;5070831;28;20067;-57
2021/12/04 01:50:52;;;;;;;10.57;8.80;;;;;;;;;;5071880;28;20040;-57
2021/12/04 01:53:19;;;;;;;9.45;8.43;;;;;;;;;;5066200;28;20039;-56
2021/12/04 01:55:45;;;;;;;11.10;8.32;;;;;;;;;;5072311;28;20090;-56
2021/12/04 01:58:11;;;;;;;9.00;7.93;;;;;;;;;;5070453;28;20035;-57
2021/12/04 02:00:39;;;;;;;10.15;8.90;;;;;;;;;;5072572;28;20090;-57
2021/12/04 02:03:07;;;;;;;11.43;8.63;;;;;;;;;;5067707;28;20485;-57
2021/12/04 02:05:34;;;;;;;10.90;8.73;;;;;;;;;;5069451;28;20126;-57
2021/12/04 02:08:00;;;;;;;10.35;8.43;;;;;;;;;;5066266;28;20045;-56
2021/12/04 02:10:26;;;;;;;10.65;8.70;;;;;;;;;;5067434;28;20040;-56
2021/12/04 02:12:52;;;;;;;11.90;9.00;;;;;;;;;;5069873;28;20481;-57
2021/12/04 02:15:20;;;;;;;10.05;8.55;;;;;;;;;;5068192;28;20475;-56
2021/12/04 02:17:46;;;;;;;9.95;8.63;;;;;;;;;;5068215;28;20044;-56
2021/12/04 02:20:16;;;;;;;9.77;8.55;;;;;;;;;;5080830;28;20471;-57
2021/12/04 02:22:42;;;;;;;10.38;8.85;;;;;;;;;;5078164;28;20090;-57
2021/12/04 02:25:09;;;;;;;9.88;8.45;;;;;;;;;;5068189;28;20048;-57
2021/12/04 02:27:35;;;;;;;10.25;8.40;;;;;;;;;;5070676;28;20132;-57
2021/12/04 02:30:03;;;;;;;9.63;8.60;;;;;;;;;;5069810;28;20470;-57
2021/12/04 02:32:30;;;;;;;11.48;8.93;;;;;;;;;;5069350;28;20044;-56
2021/12/04 02:34:57;;;;;;;10.07;8.77;;;;;;;;;;5068977;28;20395;-57
2021/12/04 02:37:23;;;;;;;10.30;8.57;;;;;;;;;;5067270;28;20498;-56
2021/12/04 02:39:57;;;;;;;11.75;9.60;;;;;;;;;;5070906;28;20119;-57
2021/12/04 02:42:24;;;;;;;10.27;8.93;;;;;;;;;;5066497;28;20078;-57
2021/12/04 02:44:50;;;;;;;11.85;9.07;;;;;;;;;;5071227;28;20053;-56
2021/12/04 02:47:16;;;;;;;12.38;9.05;;;;;;;;;;5071290;28;20041;-57
2021/12/04 02:49:43;;;;;;;10.55;8.65;;;;;;;;;;5071479;28;20075;-57
2021/12/04 02:52:10;;;;;;;10.63;8.30;;;;;;;;;;5068500;28;20115;-57
2021/12/04 02:54:37;;;;;;;9.82;8.73;;;;;;;;;;5067171;28;20048;-57
2021/12/04 02:57:06;;;;;;;10.95;8.18;;;;;;;;;;5070959;28;20036;-56
2021/12/04 02:59:37;;;;;;;10.18;8.68;;;;;;;;;;5070233;28;20135;-57
2021/12/04 03:02:04;;;;;;;9.50;8.25;;;;;;;;;;5064587;28;20044;-57
2021/12/04 03:04:32;;;;;;;12.05;8.35;;;;;;;;;;5065795;28;20064;-57
2021/12/04 03:06:58;;;;;;;10.27;8.35;;;;;;;;;;5069788;28;20049;-57
2021/12/04 03:09:24;;;;;;;10.20;8.00;;;;;;;;;;5067423;28;20062;-56
2021/12/04 03:11:50;;;;;;;9.25;7.85;;;;;;;;;;5066369;28;20076;-56
2021/12/04 03:14:17;;;;;;;9.95;7.85;;;;;;;;;;5070052;28;20039;-56
2021/12/04 03:16:44;;;;;;;8.80;7.60;;;;;;;;;;5066047;28;20120;-56
2021/12/04 03:19:10;;;;;;;13.18;8.05;;;;;;;;;;5061021;28;20390;-57
2021/12/04 03:21:38;;;;;;;9.25;7.43;;;;;;;;;;5062053;28;20051;-57
2021/12/04 03:24:07;;;;;;;9.68;7.93;;;;;;;;;;5063195;28;20060;-57
2021/12/04 03:26:34;;;;;;;12.00;7.93;;;;;;;;;;5064123;28;20036;-56
2021/12/04 03:29:07;;;;;;;11.27;7.78;;;;;;;;;;5077676;28;20447;-56
2021/12/04 03:32:12;;;;;;;;;;;4.90;99.90;;;;;;5061892;28;20049;-56
2021/12/04 03:42:36;;;;;;;10.73;7.43;;;;;;;;;;5061509;28;20037;-56
2021/12/04 03:45:03;;;;;;;9.63;7.70;;;;;;;;;;5064313;28;20075;-55
2021/12/04 03:47:30;;;;;;;8.85;7.35;;;;;;;;;;5053984;28;20044;-56
2021/12/04 03:49:56;;;;;;;8.88;7.45;;;;;;;;;;5062374;28;20099;-57
2021/12/04 03:52:23;;;;;;;8.70;7.25;;;;;;;;;;5064248;28;20447;-57
2021/12/04 03:54:49;;;;;;;9.13;7.60;;;;;;;;;;5069670;28;20147;-56
2021/12/04 03:57:15;;;;;;;7.30;6.43;;;;;;;;;;5066439;28;20036;-57
2021/12/04 03:59:44;;;;;;;7.90;6.97;;;;;;;;;;5069088;28;20043;-57
2021/12/04 04:02:11;;;;;;;8.02;6.78;;;;;;;;;;5064357;28;20043;-57
2021/12/04 04:04:38;;;;;;;8.15;6.85;;;;;;;;;;5069422;28;20041;-57
2021/12/04 04:07:04;;;;;;;8.50;6.82;;;;;;;;;;5070096;28;20044;-57
2021/12/04 04:09:31;;;;;;;8.35;6.80;;;;;;;;;;5069269;28;20098;-56
2021/12/04 04:11:57;;;;;;;7.93;6.68;;;;;;;;;;5067222;28;20051;-56
2021/12/04 04:14:24;;;;;;;9.20;6.80;;;;;;;;;;5068541;28;20041;-56
2021/12/04 04:16:51;;;;;;;6.80;5.82;;;;;;;;;;5068912;28;20463;-56
2021/12/04 04:19:17;;;;;;;8.90;6.68;;;;;;;;;;5070358;28;20036;-57
2021/12/04 04:21:43;;;;;;;7.63;6.47;;;;;;;;;;5066842;28;20066;-57
2021/12/04 04:24:10;;;;;;;6.60;5.97;;;;;;;;;;5066181;28;20032;-56
2021/12/04 04:26:37;;;;;;;8.45;6.60;;;;;;;;;;5069095;28;20044;-56
2021/12/04 04:29:04;;;;;;;8.18;7.28;;;;;;;;;;5069930;28;20028;-57
2021/12/04 04:31:30;;;;;;;7.72;6.47;;;;;;;;;;5064306;28;20048;-56
2021/12/04 04:34:05;;;;;;;7.18;6.40;;;;;;;;;;5066605;28;20037;-56
2021/12/04 04:58:13;;;;;;;7.65;6.57;;;;;;;;;;5066529;28;20045;-57
2021/12/04 05:11:36;;;;;;;7.25;6.40;;;;;;;;;;5068351;28;20037;-56
2021/12/04 05:14:04;;;;;;;7.68;6.80;;;;;;;;;;5065847;28;20115;-56
2021/12/04 05:16:41;;;;;;;7.57;6.75;;;;;;;;;;5066435;28;20040;-56
2021/12/04 05:19:24;;;;;;;8.80;6.25;;;;;;;;;;5066408;28;20036;-55
2021/12/04 05:21:50;;;;;;;7.68;6.45;;;;;;;;;;5069888;28;20517;-57
2021/12/04 05:24:16;;;;;;;8.90;6.80;;;;;;;;;;5066501;28;20462;-57
2021/12/04 05:26:42;;;;;;;8.73;6.72;;;;;;;;;;5066571;28;20072;-56
2021/12/04 05:29:08;;;;;;;9.63;7.15;;;;;;;;;;5069337;28;20043;-57
2021/12/04 05:31:34;;;;;;;8.73;6.97;;;;;;;;;;5069542;28;20033;-56
2021/12/04 05:34:00;;;;;;;7.20;6.38;;;;;;;;;;5072627;28;20033;-56
2021/12/04 05:36:26;;;;;;;8.10;6.57;;;;;;;;;;5069646;28;20097;-57
2021/12/04 05:38:53;;;;;;;10.63;6.38;;;;;;;;;;5070181;28;20037;-56
2021/12/04 05:41:19;;;;;;;7.80;7.00;;;;;;;;;;5066039;28;20032;-57
2021/12/04 05:43:45;;;;;;;9.30;7.18;;;;;;;;;;5068666;28;20053;-56
2021/12/04 05:46:16;;;;;;;8.55;6.95;;;;;;;;;;5057478;28;20048;-57
2021/12/04 05:48:48;;;;;;;8.32;6.90;;;;;;;;;;5061723;28;20043;-56
2021/12/04 05:51:26;;;;;;;9.60;7.38;;;;;;;;;;5072211;28;20395;-57
2021/12/04 05:56:19;;;;;;;12.82;8.05;;;;;;;;;;5070265;28;20047;-56
2021/12/04 05:58:45;;;;;;;9.85;7.50;;;;;;;;;;5070228;28;20083;-56
2021/12/04 06:01:13;;;;;;;9.75;7.45;;;;;;;;;;5071953;28;20506;-57
2021/12/04 06:03:38;;;;;;;10.32;7.25;;;;;;;;;;5070603;28;20086;-57
2021/12/04 06:06:06;;;;;;;10.52;7.80;;;;;;;;;;5072070;28;20086;-57
2021/12/04 06:08:32;;;;;;;9.75;8.15;;;;;;;;;;5067261;28;20094;-56
2021/12/04 06:10:58;;;;;;;11.70;7.82;;;;;;;;;;5064797;28;20048;-57
2021/12/04 06:13:25;;;;;;;11.80;7.30;;;;;;;;;;5070817;28;20036;-57
2021/12/04 06:15:51;;;;;;;10.27;7.70;;;;;;;;;;5070045;28;20036;-57
2021/12/04 06:18:18;;;;;;;10.82;7.97;;;;;;;;;;5068035;28;20548;-56
2021/12/04 06:23:30;;;;;;;12.52;8.32;;;;;;;;;;5068207;28;20040;-57
2021/12/04 06:25:56;;;;;;;10.40;7.85;;;;;;;;;;5072179;28;20372;-56
2021/12/04 06:28:22;;;;;;;11.48;8.23;;;;;;;;;;5071289;28;20052;-56
2021/12/04 06:30:49;;;;;;;12.18;8.43;;;;;;;;;;5065185;28;20041;-57
2021/12/04 06:33:18;;;;;;;14.23;8.77;;;;;;;;;;5064021;28;20048;-57
2021/12/04 06:35:46;;;;;;;12.95;8.73;;;;;;;;;;5062578;28;20740;-58
2021/12/04 06:38:13;;;;;;;13.48;8.43;;;;;;;;;;5071969;28;20407;-58
2021/12/04 06:40:40;;;;;;;15.88;9.13;;;;;;;;;;5071566;28;20127;-58
2021/12/04 06:43:06;;;;;;;13.93;8.40;;;;;;;;;;5065798;28;20089;-58
2021/12/04 06:45:33;;;;;;;15.35;9.32;;;;;;;;;;5063141;28;20052;-58
2021/12/04 06:48:04;;;;;;;15.65;9.52;;;;;;;;;;5068708;28;20077;-58
2021/12/04 06:53:05;;;;;;;15.88;10.05;;;;;;;;;;5071492;28;20053;-57
2021/12/04 06:55:38;;;;;;;15.30;9.67;;;;;;;;;;5071991;28;20500;-58
2021/12/04 06:58:04;;;;;;;15.13;9.13;;;;;;;;;;5071639;28;20050;-57
2021/12/04 07:00:30;;;;;;;13.93;8.85;;;;;;;;;;5072140;28;20048;-57
2021/12/04 07:02:56;;;;;;;17.23;9.88;;;;;;;;;;5070740;28;20059;-57
2021/12/04 07:05:23;;;;;;;16.80;10.02;;;;;;;;;;5071356;28;20048;-57
2021/12/04 07:07:49;;;;;;;14.55;9.63;;;;;;;;;;5069738;28;20104;-57
2021/12/04 07:10:15;;;;;;;17.08;9.88;;;;;;;;;;5071386;28;20476;-57
2021/12/04 07:12:41;;;;;;;23.60;9.52;;;;;;;;;;5071767;28;20050;-57
2021/12/04 07:15:08;;;;;;;16.15;9.70;;;;;;;;;;5071034;28;20710;-57
2021/12/04 07:17:35;;;;;;;31.27;15.40;;;;;;;;;;5071325;28;20032;-57
2021/12/04 07:20:01;;;;;;;29.35;15.73;;;;;;;;;;5069448;28;20052;-57
2021/12/04 07:22:27;;;;;;;22.33;12.00;;;;;;;;;;5071131;28;20032;-57
2021/12/04 07:24:53;;;;;;;16.27;10.85;;;;;;;;;;5071366;28;20074;-57
2021/12/04 07:27:19;;;;;;;15.77;9.65;;;;;;;;;;5068753;28;20101;-57
2021/12/04 07:29:46;;;;;;;14.02;9.52;;;;;;;;;;5069315;28;20040;-57
2021/12/04 07:32:12;;;;;;;11.73;8.30;;;;;;;;;;5070057;28;20041;-57
2021/12/04 07:34:38;;;;;;;12.55;7.72;;;;;;;;;;5071252;28;20120;-58
2021/12/04 07:37:04;;;;;;;10.27;7.05;;;;;;;;;;5070669;28;20051;-57
2021/12/04 07:39:30;;;;;;;12.10;7.45;;;;;;;;;;5070094;28;20048;-58
2021/12/04 07:41:56;;;;;;;11.55;6.93;;;;;;;;;;5071217;28;20048;-57
2021/12/04 07:44:22;;;;;;;10.35;7.03;;;;;;;;;;5070706;28;20037;-58
2021/12/04 07:46:48;;;;;;;11.30;6.78;;;;;;;;;;5071071;28;20495;-58
2021/12/04 07:49:17;;;;;;;8.43;6.72;;;;;;;;;;5070330;28;20502;-58
2021/12/04 07:51:44;;;;;;;10.60;6.80;;;;;;;;;;5069771;28;20466;-58
2021/12/04 07:54:10;;;;;;;9.48;6.80;;;;;;;;;;5070718;28;20070;-58
2021/12/04 07:56:36;;;;;;;7.57;6.07;;;;;;;;;;5070272;28;20395;-57
2021/12/04 07:59:02;;;;;;;8.40;5.93;;;;;;;;;;5069366;28;20494;-58
2021/12/04 08:01:29;;;;;;;9.50;7.10;;;;;;;;;;5068967;28;20076;-58
2021/12/04 08:03:55;;;;;;;8.40;6.35;;;;;;;;;;5070779;28;20044;-58
2021/12/04 08:06:21;;;;;;;10.07;7.20;;;;;;;;;;5068996;28;20050;-58
2021/12/04 08:08:47;;;;;;;9.90;6.90;;;;;;;;;;5070801;28;20451;-58
2021/12/04 08:11:13;;;;;;;10.70;7.38;;;;;;;;;;5070181;28;20127;-56
2021/12/04 08:13:39;;;;;;;9.70;7.10;;;;;;;;;;5070767;28;20128;-57
2021/12/04 08:16:06;;;;;;;10.57;7.90;;;;;;;;;;5069330;28;20078;-58
2021/12/04 08:18:32;;;;;;;12.48;7.97;;;;;;;;;;5070155;28;20044;-58
2021/12/04 08:20:59;;;;;;;12.00;7.50;;;;;;;;;;5070293;28;20119;-57
2021/12/04 08:23:25;;;;;;;12.07;8.15;;;;;;;;;;5069768;28;20094;-58
2021/12/04 08:25:51;;;;;;;15.45;8.00;;;;;;;;;;5070973;28;20036;-58
2021/12/04 08:28:17;;;;;;;11.98;7.93;;;;;;;;;;5070381;28;20055;-58
2021/12/04 08:30:43;;;;;;;12.70;7.47;;;;;;;;;;5070128;28;20131;-58
2021/12/04 08:33:10;;;;;;;13.65;8.15;;;;;;;;;;5070863;28;20076;-58
2021/12/04 08:35:39;;;;;;;15.05;8.63;;;;;;;;;;5068904;28;20089;-58
2021/12/04 08:38:06;;;;;;;19.83;11.20;;;;;;;;;;5070469;28;20411;-58
2021/12/04 08:40:32;;;;;;;12.25;8.15;;;;;;;;;;5069745;28;20133;-58
2021/12/04 08:42:59;;;;;;;11.88;7.75;;;;;;;;;;5069732;28;20036;-58
2021/12/04 08:45:25;;;;;;;11.82;7.75;;;;;;;;;;5069407;28;20048;-57
2021/12/04 08:47:51;;;;;;;12.80;8.20;;;;;;;;;;5070004;28;20123;-57
2021/12/04 08:50:19;;;;;;;12.15;8.20;;;;;;;;;;5070019;28;20515;-58
2021/12/04 08:52:45;;;;;;;12.43;7.97;;;;;;;;;;5069871;28;20049;-58
2021/12/04 08:55:12;;;;;;;14.73;7.80;;;;;;;;;;5069832;28;20037;-58
2021/12/04 08:57:38;;;;;;;15.68;9.60;;;;;;;;;;5069675;28;20048;-57
2021/12/04 09:00:12;;;;;;;19.27;9.52;;;;;;;;;;5069528;28;20402;-58
2021/12/04 09:02:38;;;;;;;16.33;9.82;;;;;;;;;;5069443;28;20578;-58
2021/12/04 09:05:05;;;;;;;17.20;10.13;;;;;;;;;;5069719;28;20076;-58
2021/12/04 09:07:31;;;;;;;14.40;7.90;;;;;;;;;;5071959;28;20083;-58
2021/12/04 09:09:57;;;;;;;17.98;9.05;;;;;;;;;;5073696;28;20039;-58
2021/12/04 09:12:24;;;;;;;14.95;9.55;;;;;;;;;;5073028;28;20124;-57
2021/12/04 09:14:50;;;;;;;14.65;9.55;;;;;;;;;;5072588;28;20037;-58
2021/12/04 09:17:17;;;;;;;18.77;10.88;;;;;;;;;;5067023;28;20039;-58
2021/12/04 09:19:43;;;;;;;14.68;9.20;;;;;;;;;;5072843;28;20503;-58
2021/12/04 09:22:24;;;;;;;16.63;9.82;;;;;;;;;;5073896;28;20514;-57
2021/12/04 09:24:54;;;;;;;18.02;9.88;;;;;;;;;;5072923;28;20048;-57
2021/12/04 10:00:47;;;;;;;20.02;11.07;;;;;;;;;;5073253;28;20083;-58
2021/12/04 10:18:49;;;;;;;17.85;10.15;;;;;;;;;;5072730;28;20037;-58
2021/12/04 10:32:38;;;;;;;17.73;9.90;;;;;;;;;;5050495;28;20045;-58
2021/12/04 10:35:09;;;;;;;16.13;8.90;;;;;;;;;;5050202;28;20120;-58
2021/12/04 10:37:45;;;;;;;18.00;10.35;;;;;;;;;;5050498;28;20044;-58
2021/12/04 10:40:11;;;;;;;18.75;10.23;;;;;;;;;;5050227;28;20427;-57
2021/12/04 10:42:46;;;;;;;22.30;10.43;;;;;;;;;;5050287;28;20434;-58
2021/12/04 10:45:13;;;;;;;21.25;11.23;;;;;;;;;;5050259;28;20045;-58
2021/12/04 10:47:49;;;;;;;19.42;10.95;;;;;;;;;;5050221;28;20044;-58
2021/12/04 10:53:35;;;;;;;21.88;11.60;;;;;;;;;;5049950;28;20045;-57
2021/12/04 11:38:44;;;;;;;23.67;12.18;;;;;;;;;;5071250;28;20047;-58
2021/12/04 11:41:16;;;;;;;22.50;12.35;;;;;;;;;;5071340;28;20044;-58
2021/12/04 11:48:46;;;;;;;22.23;11.57;;;;;;;;;;5071170;28;20139;-58
2021/12/04 11:51:15;;;;;;;25.25;12.45;;;;;;;;;;5071075;28;20403;-57
2021/12/04 11:53:41;;;;;;;21.17;12.52;;;;;;;;;;5071181;28;20044;-58
2021/12/04 11:56:12;;;;;;;23.08;12.10;;;;;;;;;;5070980;28;20407;-58
2021/12/04 11:58:42;;;;;;;22.77;12.23;;;;;;;;;;5071259;28;20130;-58
2021/12/04 12:01:20;;;;;;;23.17;11.93;;;;;;;;;;5070868;28;20044;-58
2021/12/04 12:03:54;;;;;;;25.90;12.38;;;;;;;;;;5070777;28;20137;-58
2021/12/04 12:06:37;;;;;;;22.80;12.18;;;;;;;;;;5070955;28;20061;-58
2021/12/04 12:09:18;;;;;;;26.80;12.32;;;;;;;;;;5070955;28;20056;-58
2021/12/04 12:11:49;;;;;;;23.17;11.10;;;;;;;;;;5070852;28;20048;-58
2021/12/04 12:14:16;;;;;;;22.73;11.55;;;;;;;;;;5070787;28;20044;-57
2021/12/04 12:16:47;;;;;;;24.90;11.90;;;;;;;;;;5071131;28;20403;-59
2021/12/04 12:19:23;;;;;;;23.98;12.43;;;;;;;;;;5070614;28;20037;-57
2021/12/04 12:33:03;;;;;;;24.65;12.25;;;;;;;;;;5070490;28;20557;-58
2021/12/04 12:38:17;;;;;;;21.17;11.85;;;;;;;;;;5070503;28;20033;-58
2021/12/04 12:40:56;;;;;;;21.73;12.23;;;;;;;;;;5070482;28;20115;-58
2021/12/04 12:43:22;;;;;;;24.05;11.85;;;;;;;;;;5070417;28;20052;-57
2021/12/04 12:45:52;;;;;;;23.27;11.73;;;;;;;;;;5070767;28;20079;-58
2021/12/04 12:48:18;;;;;;;26.00;12.60;;;;;;;;;;5070385;28;20614;-58
2021/12/04 12:50:46;;;;;;;29.25;13.18;;;;;;;;;;5070550;28;20048;-58
2021/12/04 12:53:12;;;;;;;35.28;13.88;;;;;;;;;;5066183;28;20532;-58
2021/12/04 12:55:40;;;;;;;31.05;12.57;;;;;;;;;;5069438;28;20045;-58
2021/12/04 12:58:18;;;;;;;27.50;14.55;;;;;;;;;;5069160;28;20055;-58
2021/12/04 13:11:53;;;;;;;29.48;15.60;;;;;;;;;;5068804;28;20075;-57
2021/12/04 13:14:41;;;;;;;26.67;14.40;;;;;;;;;;5070180;28;20045;-58
2021/12/04 13:17:13;;;;;;;27.95;14.88;;;;;;;;;;5070065;28;20487;-58
2021/12/04 13:19:41;;;;;;;30.75;16.20;;;;;;;;;;5070046;28;20483;-58
2021/12/04 13:22:27;;;;;;;28.95;14.75;;;;;;;;;;5070158;28;20040;-58
2021/12/04 13:24:54;;;;;;;28.48;15.40;;;;;;;;;;5070338;28;20040;-58
2021/12/04 13:29:49;;;;;;;30.02;15.88;;;;;;;;;;5070020;28;20491;-57
2021/12/04 13:32:16;;;;;;;32.30;15.40;;;;;;;;;;5068898;28;20041;-58
2021/12/04 13:34:43;;;;;;;31.95;15.43;;;;;;;;;;5069999;28;20537;-58
2021/12/04 13:37:10;;;;;;;34.53;16.20;;;;;;;;;;5070001;28;20075;-58
2021/12/04 13:39:37;;;;;;;35.53;15.85;;;;;;;;;;5068445;28;20040;-57
2021/12/04 13:42:04;;;;;;;37.55;16.23;;;;;;;;;;5070029;28;20036;-58
2021/12/04 13:44:32;;;;;;;33.45;17.10;;;;;;;;;;5069923;28;20048;-58
2021/12/04 13:47:02;;;;;;;36.53;17.00;;;;;;;;;;5070047;28;20407;-58
2021/12/04 13:49:32;;;;;;;34.28;18.17;;;;;;;;;;5068768;28;20048;-57
2021/12/04 13:51:59;;;;;;;36.55;17.60;;;;;;;;;;5069071;28;20048;-57
2021/12/04 13:54:26;;;;;;;36.95;17.15;;;;;;;;;;5071815;28;20033;-58
2021/12/04 13:56:52;;;;;;;39.88;18.80;;;;;;;;;;5073418;28;20036;-58
2021/12/04 13:59:22;;;;;;;34.20;17.58;;;;;;;;;;5073520;28;20426;-58
2021/12/04 14:01:48;;;;;;;37.72;18.63;;;;;;;;;;5073303;28;20037;-58
2021/12/04 14:04:18;;;;;;;39.38;19.48;;;;;;;;;;5073100;28;20127;-57
2021/12/04 14:06:52;;;;;;;40.92;20.67;;;;;;;;;;5073272;28;20131;-58
2021/12/04 14:09:22;;;;;;;47.83;24.88;;;;;;;;;;5073492;28;20082;-58
2021/12/04 14:11:49;;;;;;;50.15;24.40;;;;;;;;;;5073094;28;20403;-58
2021/12/04 14:14:15;;;;;;;48.35;24.40;;;;;;;;;;5073198;28;20119;-58
2021/12/04 14:16:42;;;;;;;41.33;20.77;;;;;;;;;;5072761;28;20131;-58
2021/12/04 14:19:11;;;;;;;46.42;23.38;;;;;;;;;;5073195;28;20028;-58
2021/12/04 14:21:37;;;;;;;51.97;23.67;;;;;;;;;;5073291;28;20446;-58
2021/12/04 14:24:04;;;;;;;44.60;23.08;;;;;;;;;;5073067;28;20059;-58
2021/12/04 14:26:30;;;;;;;48.70;22.80;;;;;;;;;;5073114;28;20453;-58
2021/12/04 14:28:56;;;;;;;40.65;20.63;;;;;;;;;;5072764;28;20097;-58
2021/12/04 14:31:23;;;;;;;39.70;19.77;;;;;;;;;;5071619;28;20056;-58
2021/12/04 14:33:49;;;;;;;38.55;18.60;;;;;;;;;;5071342;28;20060;-58
2021/12/04 14:36:22;;;;;;;38.00;17.50;;;;;;;;;;5072852;28;20502;-58
2021/12/04 14:38:48;;;;;;;33.20;18.30;;;;;;;;;;5072330;28;20040;-58
2021/12/04 14:41:15;;;;;;;31.27;16.27;;;;;;;;;;5066324;28;20033;-58
2021/12/04 14:43:41;;;;;;;34.50;16.65;;;;;;;;;;5071962;28;20079;-58
2021/12/04 14:46:09;;;;;;;38.25;17.10;;;;;;;;;;5071988;28;20044;-57
2021/12/04 14:48:36;;;;;;;30.23;17.08;;;;;;;;;;5072724;28;20056;-58
2021/12/04 14:51:06;;;;;;;34.17;15.95;;;;;;;;;;5072449;28;20115;-58
2021/12/04 14:53:33;;;;;;;36.15;17.00;;;;;;;;;;5072512;28;20550;-58
2021/12/04 14:55:59;;;;;;;32.42;16.85;;;;;;;;;;5071991;28;20032;-57
2021/12/04 14:58:29;;;;;;;31.98;16.15;;;;;;;;;;5072122;28;20029;-58
2021/12/04 15:00:59;;;;;;;31.60;16.35;;;;;;;;;;5072125;28;20055;-58
2021/12/04 15:03:34;;;;;;;30.75;16.88;;;;;;;;;;5072247;28;20392;-58
2021/12/04 15:06:03;;;;;;;29.80;16.17;;;;;;;;;;5071239;28;20419;-58
2021/12/04 15:08:30;;;;;;;28.75;15.95;;;;;;;;;;5072056;28;20399;-58
2021/12/04 15:10:59;;;;;;;33.88;17.25;;;;;;;;;;5071473;28;20119;-58
2021/12/04 15:13:29;;;;;;;30.73;17.10;;;;;;;;;;5070932;28;20063;-58
2021/12/04 15:15:58;;;;;;;32.30;17.02;;;;;;;;;;5071776;28;20400;-58
2021/12/04 15:18:30;;;;;;;29.27;16.27;;;;;;;;;;5071829;28;20036;-58
2021/12/04 15:20:57;;;;;;;28.08;16.27;;;;;;;;;;5071544;28;20047;-57
2021/12/04 15:23:25;;;;;;;29.85;16.48;;;;;;;;;;5071575;28;20431;-57
2021/12/04 15:25:55;;;;;;;31.23;17.35;;;;;;;;;;5071642;28;20059;-58
2021/12/04 15:28:23;;;;;;;32.33;16.20;;;;;;;;;;5070607;28;20032;-58
2021/12/04 15:30:53;;;;;;;31.15;17.73;;;;;;;;;;5071618;28;20044;-57
2021/12/04 15:33:23;;;;;;;28.55;16.45;;;;;;;;;;5071448;28;20097;-58
2021/12/04 15:35:51;;;;;;;31.23;17.35;;;;;;;;;;5071282;28;20492;-58
2021/12/04 15:38:29;;;;;;;32.80;17.60;;;;;;;;;;5071529;28;20055;-58
2021/12/04 15:41:11;;;;;;;29.67;16.90;;;;;;;;;;5071273;28;20119;-58
2021/12/04 15:54:16;;;;;;;62.03;35.20;;;;;;;;;;5071032;28;20135;-58
2021/12/04 15:56:48;;;;;;;62.17;35.20;;;;;;;;;;5071160;28;20040;-58
2021/12/04 15:59:15;;;;;;;23.50;14.30;;;;;;;;;;5070885;28;20033;-58
2021/12/04 16:01:41;;;;;;;22.40;13.98;;;;;;;;;;5071302;28;20071;-59
2021/12/04 16:04:18;;;;;;;23.70;13.93;;;;;;;;;;5070958;28;20128;-58
2021/12/04 16:06:44;;;;;;;23.00;13.63;;;;;;;;;;5071174;28;20105;-57
2021/12/04 16:09:10;;;;;;;20.48;13.88;;;;;;;;;;5069814;28;20056;-58
2021/12/04 16:11:40;;;;;;;21.98;13.70;;;;;;;;;;5071261;28;20101;-58
2021/12/04 16:14:08;;;;;;;21.30;12.98;;;;;;;;;;5070988;28;20047;-58
2021/12/04 16:16:37;;;;;;;19.00;12.38;;;;;;;;;;5070265;28;20040;-58
2021/12/04 16:19:04;;;;;;;20.35;13.32;;;;;;;;;;5070845;28;20048;-58
2021/12/04 16:21:31;;;;;;;17.38;12.60;;;;;;;;;;5070677;28;20402;-58
2021/12/04 16:23:58;;;;;;;18.85;12.65;;;;;;;;;;5069441;28;20398;-58
2021/12/04 16:26:29;;;;;;;22.05;14.48;;;;;;;;;;5069593;28;20036;-58
2021/12/04 16:29:03;;;;;;;21.08;12.93;;;;;;;;;;5065355;28;20082;-58
2021/12/04 16:39:31;;;;;;;19.70;12.80;;;;;;;;;;5028116;28;20053;-58
2021/12/04 16:41:57;;;;;;;19.23;12.40;;;;;;;;;;5028368;28;20037;-58
2021/12/04 16:44:23;;;;;;;17.38;11.27;;;;;;;;;;5027910;28;20079;-58
2021/12/04 16:46:50;;;;;;;15.80;11.80;;;;;;;;;;5011526;28;20049;-58
2021/12/04 16:49:16;;;;;;;14.75;11.70;;;;;;;;;;5028006;28;20038;-58
2021/12/04 16:57:33;;;;;;;17.33;11.82;;;;;;;;;;5028148;28;20041;-58
2021/12/04 17:00:00;;;;;;;15.85;11.68;;;;;;;;;;5028156;28;20043;-58
2021/12/04 17:02:26;;;;;;;30.48;23.77;;;;;;;;;;5027839;28;20076;-58
2021/12/04 17:04:53;;;;;;;15.93;12.10;;;;;;;;;;5027952;28;20496;-58
2021/12/04 17:07:23;;;;;;;14.68;11.15;;;;;;;;;;5028017;28;20052;-58
2021/12/04 17:09:49;;;;;;;16.60;11.38;;;;;;;;;;5027903;28;20053;-58
2021/12/04 17:12:16;;;;;;;14.60;10.70;;;;;;;;;;5063432;28;20128;-58
2021/12/04 17:14:42;;;;;;;16.73;10.43;;;;;;;;;;5070184;28;20037;-58
2021/12/04 17:17:11;;;;;;;12.55;9.90;;;;;;;;;;5070335;28;20063;-58
2021/12/04 17:19:37;;;;;;;17.13;11.13;;;;;;;;;;5069995;28;20032;-58
2021/12/04 17:22:03;;;;;;;16.30;9.90;;;;;;;;;;5070097;28;20033;-58
2021/12/04 17:24:30;;;;;;;12.77;9.15;;;;;;;;;;5069732;28;20032;-58
2021/12/04 17:26:57;;;;;;;11.80;8.40;;;;;;;;;;5070166;28;20052;-58
2021/12/04 17:29:24;;;;;;;11.23;8.75;;;;;;;;;;5073811;28;20041;-59
2021/12/04 17:31:50;;;;;;;11.73;9.00;;;;;;;;;;5073732;28;20120;-58
2021/12/04 17:34:17;;;;;;;14.07;9.23;;;;;;;;;;5073832;28;20499;-58
2021/12/04 17:36:43;;;;;;;12.35;9.00;;;;;;;;;;5072432;28;20044;-58
2021/12/04 17:39:11;;;;;;;13.43;9.43;;;;;;;;;;5074073;28;20036;-58
2021/12/04 17:41:38;;;;;;;12.18;9.48;;;;;;;;;;5073447;28;20075;-58
2021/12/04 17:44:06;;;;;;;14.32;9.18;;;;;;;;;;5073868;28;20037;-58
2021/12/04 17:46:33;;;;;;;15.43;9.82;;;;;;;;;;5073457;28;20040;-58
2021/12/04 17:48:59;;;;;;;14.90;10.07;;;;;;;;;;5072634;28;20471;-58
2021/12/04 17:51:27;;;;;;;14.60;9.07;;;;;;;;;;5073282;28;20033;-57
2021/12/04 17:53:57;;;;;;;12.45;7.43;;;;;;;;;;5073619;28;20043;-58
2021/12/04 17:56:23;;;;;;;14.45;9.23;;;;;;;;;;5073511;28;20048;-58
2021/12/04 17:58:49;;;;;;;13.73;8.18;;;;;;;;;;5073433;28;20033;-58
2021/12/04 18:01:20;;;;;;;15.93;9.20;;;;;;;;;;5073724;28;20079;-58
2021/12/04 18:03:47;;;;;;;15.82;9.35;;;;;;;;;;5073042;28;20037;-58
2021/12/04 18:06:16;;;;;;;18.77;8.90;;;;;;;;;;5073390;28;20138;-58
2021/12/04 18:08:43;;;;;;;17.08;9.30;;;;;;;;;;5071701;28;20052;-58
2021/12/04 18:11:11;;;;;;;19.75;9.20;;;;;;;;;;5073302;28;20036;-57
2021/12/04 18:13:39;;;;;;;18.60;9.90;;;;;;;;;;5073123;28;20040;-57
2021/12/04 18:16:07;;;;;;;18.65;9.63;;;;;;;;;;5072341;28;20036;-59